createdAt,value
2023-01-13T00:00:33.253Z,1.10
2023-01-13T00:01:33.190Z,1.50
2023-01-13T00:02:33.227Z,1.10
2023-01-13T00:03:33.155Z,1.10
2023-01-13T00:04:33.162Z,1.10
2023-01-13T00:05:33.128Z,1.10
2023-01-13T00:06:33.143Z,1.20
2023-01-13T00:07:33.111Z,1.00
2023-01-13T00:08:33.102Z,1.20
2023-01-13T00:09:33.090Z,1.70
2023-01-13T00:10:33.082Z,1.30
2023-01-13T00:11:33.084Z,1.20
2023-01-13T00:12:33.056Z,1.30
2023-01-13T00:13:33.048Z,1.20
2023-01-13T00:14:33.039Z,1.10
2023-01-13T00:15:33.027Z,1.10
2023-01-13T00:16:33.034Z,1.00
2023-01-13T00:17:33.003Z,0.90
2023-01-13T00:18:32.995Z,1.10
2023-01-13T00:19:32.989Z,1.10
2023-01-13T00:20:32.970Z,1.30
2023-01-13T00:21:32.973Z,0.90
2023-01-13T00:22:32.954Z,1.00
2023-01-13T00:23:32.943Z,1.20
2023-01-13T00:24:32.935Z,0.90
2023-01-13T00:25:32.922Z,1.10
2023-01-13T00:26:32.934Z,1.30
2023-01-13T00:27:32.907Z,1.00
2023-01-13T00:28:32.892Z,1.00
2023-01-13T00:29:32.881Z,0.90
2023-01-13T00:30:32.874Z,1.10
2023-01-13T00:31:32.925Z,0.90
2023-01-13T00:32:32.857Z,1.20
2023-01-13T00:33:32.836Z,1.00
2023-01-13T00:34:32.822Z,0.90
2023-01-13T00:35:32.809Z,1.10
2023-01-13T00:36:32.813Z,1.30
2023-01-13T00:37:32.802Z,1.10
2023-01-13T00:38:32.792Z,0.90
2023-01-13T00:39:32.784Z,1.60
2023-01-13T00:40:32.775Z,1.10
2023-01-13T00:41:32.772Z,1.00
2023-01-13T00:42:32.744Z,1.10
2023-01-13T00:43:32.743Z,0.90
2023-01-13T00:44:32.734Z,1.10
2023-01-13T00:45:32.718Z,0.80
2023-01-13T00:46:32.757Z,1.30
2023-01-13T00:47:32.688Z,0.90
2023-01-13T00:48:32.688Z,1.00
2023-01-13T00:49:32.669Z,1.10
2023-01-13T00:50:32.660Z,1.10
2023-01-13T00:51:32.654Z,1.00
2023-01-13T00:52:32.638Z,0.90
2023-01-13T00:53:32.624Z,1.10
2023-01-13T00:54:32.637Z,1.10
2023-01-13T00:55:32.613Z,1.00
2023-01-13T00:56:40.245Z,1.10
2023-01-13T00:57:32.614Z,0.90
2023-01-13T00:58:32.578Z,1.20
2023-01-13T00:59:32.566Z,2.00
2023-01-13T01:00:32.664Z,1.20
2023-01-13T01:01:33.068Z,1.10
2023-01-13T01:02:32.591Z,3.30
2023-01-13T01:03:32.554Z,1.20
2023-01-13T01:04:32.520Z,1.10
2023-01-13T01:05:32.508Z,1.20
2023-01-13T01:06:32.508Z,1.00
2023-01-13T01:07:32.484Z,1.10
2023-01-13T01:08:32.470Z,1.10
2023-01-13T01:09:32.476Z,1.10
2023-01-13T01:10:32.504Z,1.10
2023-01-13T01:11:32.479Z,1.10
2023-01-13T01:12:32.457Z,1.10
2023-01-13T01:13:32.431Z,1.10
2023-01-13T01:14:32.414Z,0.90
2023-01-13T01:15:32.409Z,1.10
2023-01-13T01:16:32.629Z,0.90
2023-01-13T01:17:32.390Z,1.10
2023-01-13T01:18:32.370Z,1.10
2023-01-13T01:19:32.379Z,1.00
2023-01-13T01:20:32.350Z,1.10
2023-01-13T01:21:32.362Z,0.90
2023-01-13T01:22:32.325Z,1.20
2023-01-13T01:23:32.321Z,0.90
2023-01-13T01:24:32.327Z,1.10
2023-01-13T01:25:32.298Z,1.10
2023-01-13T01:26:32.302Z,0.90
2023-01-13T01:27:32.282Z,1.10
2023-01-13T01:28:32.274Z,0.90
2023-01-13T01:29:32.270Z,1.10
2023-01-13T01:30:32.258Z,0.90
2023-01-13T01:31:32.343Z,1.00
2023-01-13T01:32:32.217Z,0.90
2023-01-13T01:33:32.207Z,0.90
2023-01-13T01:34:32.205Z,1.10
2023-01-13T01:35:32.194Z,1.30
2023-01-13T01:36:32.223Z,1.20
2023-01-13T01:37:32.168Z,1.20
2023-01-13T01:38:32.159Z,1.10
2023-01-13T01:39:32.143Z,1.20
2023-01-13T01:40:32.142Z,1.20
2023-01-13T01:41:32.139Z,2.70
2023-01-13T01:42:32.114Z,1.20
2023-01-13T01:43:32.103Z,1.10
2023-01-13T01:44:32.098Z,1.00
2023-01-13T01:45:32.081Z,0.90
2023-01-13T01:46:32.121Z,1.40
2023-01-13T01:47:32.057Z,1.10
2023-01-13T01:48:32.049Z,0.90
2023-01-13T01:49:32.038Z,1.10
2023-01-13T01:50:32.033Z,1.00
2023-01-13T01:51:32.039Z,1.10
2023-01-13T01:52:32.018Z,0.90
2023-01-13T01:53:32.008Z,1.10
2023-01-13T01:54:31.985Z,1.10
2023-01-13T01:55:31.973Z,1.00
2023-01-13T01:56:31.979Z,1.40
2023-01-13T01:57:31.957Z,0.90
2023-01-13T01:58:31.948Z,1.10
2023-01-13T01:59:31.933Z,1.00
2023-01-13T02:00:31.949Z,1.00
2023-01-13T02:01:32.018Z,1.10
2023-01-13T02:02:32.074Z,0.90
2023-01-13T02:03:31.888Z,1.10
2023-01-13T02:04:31.876Z,1.10
2023-01-13T02:05:31.863Z,1.10
2023-01-13T02:06:31.871Z,1.10
2023-01-13T02:07:31.856Z,1.00
2023-01-13T02:08:31.844Z,1.20
2023-01-13T02:09:31.828Z,1.20
2023-01-13T02:10:31.813Z,1.20
2023-01-13T02:11:31.817Z,1.00
2023-01-13T02:12:31.831Z,1.10
2023-01-13T02:13:31.790Z,0.90
2023-01-13T02:14:31.792Z,1.10
2023-01-13T02:15:31.778Z,1.00
2023-01-13T02:16:31.955Z,1.10
2023-01-13T02:17:31.745Z,1.10
2023-01-13T02:18:31.726Z,0.90
2023-01-13T02:19:31.714Z,1.10
2023-01-13T02:20:31.708Z,1.00
2023-01-13T02:21:31.707Z,1.60
2023-01-13T02:22:31.705Z,1.10
2023-01-13T02:23:31.679Z,1.10
2023-01-13T02:24:31.666Z,1.10
2023-01-13T02:25:31.656Z,1.20
2023-01-13T02:26:31.657Z,1.20
2023-01-13T02:27:31.638Z,1.10
2023-01-13T02:28:31.619Z,0.90
2023-01-13T02:29:31.607Z,1.20
2023-01-13T02:30:31.604Z,0.90
2023-01-13T02:31:31.629Z,1.10
2023-01-13T02:32:31.584Z,1.10
2023-01-13T02:33:31.568Z,0.90
2023-01-13T02:34:31.551Z,1.10
2023-01-13T02:35:31.550Z,0.90
2023-01-13T02:36:31.546Z,3.00
2023-01-13T02:37:31.523Z,0.90
2023-01-13T02:38:31.536Z,0.90
2023-01-13T02:39:31.506Z,1.10
2023-01-13T02:40:31.519Z,1.00
2023-01-13T02:41:31.483Z,1.10
2023-01-13T02:42:31.489Z,1.00
2023-01-13T02:43:31.457Z,0.90
2023-01-13T02:44:31.446Z,1.00
2023-01-13T02:45:31.461Z,0.90
2023-01-13T02:46:31.429Z,0.90
2023-01-13T02:47:31.427Z,0.90
2023-01-13T02:48:31.409Z,1.10
2023-01-13T02:49:31.391Z,1.10
2023-01-13T02:50:31.375Z,1.10
2023-01-13T02:51:31.365Z,1.10
2023-01-13T02:52:31.374Z,1.00
2023-01-13T02:53:31.345Z,1.10
2023-01-13T02:54:31.339Z,1.30
2023-01-13T02:55:31.339Z,1.10
2023-01-13T02:56:31.319Z,1.60
2023-01-13T02:57:31.322Z,1.10
2023-01-13T02:58:31.294Z,1.10
2023-01-13T02:59:31.237Z,0.90
2023-01-13T03:00:31.178Z,1.10
2023-01-13T03:01:31.231Z,1.00
2023-01-13T03:02:31.226Z,1.00
2023-01-13T03:03:31.133Z,1.00
2023-01-13T03:04:31.113Z,0.90
2023-01-13T03:05:31.112Z,1.20
2023-01-13T03:06:31.097Z,1.10
2023-01-13T03:07:31.105Z,1.00
2023-01-13T03:08:31.073Z,1.10
2023-01-13T03:09:31.068Z,1.00
2023-01-13T03:10:31.052Z,1.10
2023-01-13T03:11:31.049Z,0.90
2023-01-13T03:12:31.047Z,1.00
2023-01-13T03:13:31.026Z,1.20
2023-01-13T03:14:31.008Z,0.90
2023-01-13T03:15:31.005Z,1.10
2023-01-13T03:16:31.037Z,1.00
2023-01-13T03:17:30.997Z,0.90
2023-01-13T03:18:30.964Z,1.10
2023-01-13T03:19:30.957Z,1.10
2023-01-13T03:20:30.953Z,1.10
2023-01-13T03:21:30.939Z,1.10
2023-01-13T03:22:30.934Z,0.90
2023-01-13T03:23:30.914Z,1.10
2023-01-13T03:24:30.903Z,0.90
2023-01-13T03:25:36.907Z,1.10
2023-01-13T03:26:30.887Z,1.10
2023-01-13T03:27:30.913Z,1.00
2023-01-13T03:28:30.858Z,1.10
2023-01-13T03:29:30.863Z,0.90
2023-01-13T03:30:30.908Z,1.00
2023-01-13T03:31:30.830Z,1.10
2023-01-13T03:32:30.830Z,0.90
2023-01-13T03:33:30.813Z,1.20
2023-01-13T03:34:31.268Z,1.00
2023-01-13T03:35:30.813Z,1.30
2023-01-13T03:36:30.776Z,1.10
2023-01-13T03:37:30.787Z,0.90
2023-01-13T03:38:30.771Z,1.10
2023-01-13T03:39:30.752Z,1.10
2023-01-13T03:40:30.735Z,1.20
2023-01-13T03:41:30.735Z,1.10
2023-01-13T03:42:30.730Z,1.10
2023-01-13T03:43:30.711Z,1.00
2023-01-13T03:44:32.613Z,1.10
2023-01-13T03:45:30.693Z,1.00
2023-01-13T03:46:30.673Z,1.10
2023-01-13T03:47:30.689Z,1.10
2023-01-13T03:48:30.655Z,0.90
2023-01-13T03:49:30.650Z,1.30
2023-01-13T03:50:30.632Z,1.00
2023-01-13T03:51:30.634Z,1.10
2023-01-13T03:52:30.624Z,1.10
2023-01-13T03:53:30.612Z,0.90
2023-01-13T03:54:30.589Z,1.70
2023-01-13T03:55:30.595Z,1.10
2023-01-13T03:56:30.571Z,1.30
2023-01-13T03:57:30.585Z,1.10
2023-01-13T03:58:30.562Z,1.10
2023-01-13T03:59:30.543Z,1.10
2023-01-13T04:00:30.526Z,1.10
2023-01-13T04:01:30.616Z,0.90
2023-01-13T04:02:30.522Z,1.10
2023-01-13T04:03:30.555Z,0.90
2023-01-13T04:04:30.486Z,1.20
2023-01-13T04:05:30.480Z,1.10
2023-01-13T04:06:30.472Z,1.10
2023-01-13T04:07:30.486Z,1.20
2023-01-13T04:08:30.453Z,1.10
2023-01-13T04:09:30.445Z,1.30
2023-01-13T04:10:30.431Z,1.20
2023-01-13T04:11:30.422Z,1.10
2023-01-13T04:12:30.426Z,1.10
2023-01-13T04:13:30.399Z,1.10
2023-01-13T04:14:30.399Z,1.10
2023-01-13T04:15:30.456Z,1.10
2023-01-13T04:16:30.384Z,1.40
2023-01-13T04:17:30.367Z,1.10
2023-01-13T04:18:30.395Z,1.20
2023-01-13T04:19:30.346Z,1.20
2023-01-13T04:20:30.332Z,0.90
2023-01-13T04:21:30.339Z,1.10
2023-01-13T04:22:30.305Z,1.30
2023-01-13T04:23:30.320Z,1.50
2023-01-13T04:24:30.288Z,1.10
2023-01-13T04:25:30.285Z,1.10
2023-01-13T04:26:30.267Z,1.20
2023-01-13T04:27:30.287Z,1.40
2023-01-13T04:28:30.262Z,1.10
2023-01-13T04:29:30.240Z,1.20
2023-01-13T04:30:30.229Z,1.10
2023-01-13T04:31:30.226Z,1.10
2023-01-13T04:32:30.209Z,1.10
2023-01-13T04:33:30.229Z,1.00
2023-01-13T04:34:30.188Z,1.20
2023-01-13T04:35:30.181Z,1.20
2023-01-13T04:36:30.212Z,1.10
2023-01-13T04:37:30.168Z,1.10
2023-01-13T04:38:30.165Z,1.00
2023-01-13T04:39:30.147Z,1.10
2023-01-13T04:40:30.152Z,1.10
2023-01-13T04:41:30.127Z,1.00
2023-01-13T04:42:30.109Z,1.20
2023-01-13T04:43:30.115Z,1.00
2023-01-13T04:44:30.089Z,1.20
2023-01-13T04:45:30.110Z,1.10
2023-01-13T04:46:30.169Z,1.10
2023-01-13T04:47:30.065Z,1.10
2023-01-13T04:48:30.069Z,1.30
2023-01-13T04:49:30.044Z,1.10
2023-01-13T04:50:30.033Z,1.40
2023-01-13T04:51:30.026Z,1.10
2023-01-13T04:52:30.030Z,1.00
2023-01-13T04:53:30.024Z,1.90
2023-01-13T04:54:29.991Z,1.20
2023-01-13T04:55:29.983Z,0.90
2023-01-13T04:56:29.966Z,1.10
2023-01-13T04:57:29.980Z,1.10
2023-01-13T04:58:29.967Z,1.30
2023-01-13T04:59:29.944Z,1.10
2023-01-13T05:00:29.931Z,1.10
2023-01-13T05:01:30.079Z,1.50
2023-01-13T05:02:29.912Z,1.70
2023-01-13T05:03:29.921Z,1.10
2023-01-13T05:04:29.942Z,1.20
2023-01-13T05:05:29.901Z,1.10
2023-01-13T05:06:29.879Z,0.90
2023-01-13T05:07:29.864Z,1.10
2023-01-13T05:08:29.871Z,1.10
2023-01-13T05:09:29.852Z,1.10
2023-01-13T05:10:29.848Z,1.10
2023-01-13T05:11:29.830Z,1.10
2023-01-13T05:12:29.811Z,1.20
2023-01-13T05:13:29.820Z,1.10
2023-01-13T05:14:29.789Z,1.10
2023-01-13T05:15:29.782Z,1.10
2023-01-13T05:16:29.903Z,1.00
2023-01-13T05:17:29.764Z,0.90
2023-01-13T05:18:29.759Z,1.50
2023-01-13T05:19:29.743Z,1.10
2023-01-13T05:20:29.734Z,0.90
2023-01-13T05:21:29.735Z,1.10
2023-01-13T05:22:29.707Z,1.10
2023-01-13T05:23:29.717Z,0.90
2023-01-13T05:24:29.684Z,1.20
2023-01-13T05:25:29.685Z,1.10
2023-01-13T05:26:29.662Z,0.90
2023-01-13T05:27:29.667Z,1.10
2023-01-13T05:28:29.657Z,1.10
2023-01-13T05:29:29.644Z,1.10
2023-01-13T05:30:29.637Z,1.10
2023-01-13T05:31:29.664Z,1.10
2023-01-13T05:32:29.608Z,1.10
2023-01-13T05:33:29.611Z,1.10
2023-01-13T05:34:29.579Z,1.10
2023-01-13T05:35:29.580Z,1.10
2023-01-13T05:36:29.567Z,1.10
2023-01-13T05:37:29.560Z,1.10
2023-01-13T05:38:29.563Z,1.10
2023-01-13T05:39:29.535Z,1.10
2023-01-13T05:40:29.530Z,1.00
2023-01-13T05:41:29.513Z,1.20
2023-01-13T05:42:29.520Z,1.10
2023-01-13T05:43:29.526Z,0.90
2023-01-13T05:44:29.489Z,1.20
2023-01-13T05:45:29.473Z,1.10
2023-01-13T05:46:29.498Z,1.00
2023-01-13T05:47:29.461Z,1.60
2023-01-13T05:48:29.454Z,1.10
2023-01-13T05:49:29.437Z,1.60
2023-01-13T05:50:29.444Z,1.20
2023-01-13T05:51:29.414Z,1.10
2023-01-13T05:52:29.410Z,0.90
2023-01-13T05:53:29.435Z,1.20
2023-01-13T05:54:29.381Z,1.10
2023-01-13T05:55:29.369Z,0.90
2023-01-13T05:56:29.371Z,1.10
2023-01-13T05:57:29.349Z,1.10
2023-01-13T05:58:29.382Z,0.90
2023-01-13T05:59:29.334Z,1.20
2023-01-13T06:00:29.326Z,1.10
2023-01-13T06:01:29.373Z,0.90
2023-01-13T06:02:29.307Z,1.10
2023-01-13T06:03:29.309Z,1.10
2023-01-13T06:04:29.407Z,1.10
2023-01-13T06:05:29.267Z,1.20
2023-01-13T06:06:29.267Z,1.10
2023-01-13T06:07:29.260Z,1.20
2023-01-13T06:08:29.272Z,1.10
2023-01-13T06:09:29.229Z,1.10
2023-01-13T06:10:29.225Z,1.10
2023-01-13T06:11:29.211Z,2.40
2023-01-13T06:12:29.205Z,1.10
2023-01-13T06:13:29.228Z,1.10
2023-01-13T06:14:29.184Z,1.10
2023-01-13T06:15:29.177Z,1.20
2023-01-13T06:16:29.262Z,1.20
2023-01-13T06:17:29.152Z,1.40
2023-01-13T06:18:29.173Z,1.10
2023-01-13T06:19:29.146Z,1.10
2023-01-13T06:20:29.155Z,1.10
2023-01-13T06:21:29.106Z,1.10
2023-01-13T06:22:29.120Z,1.20
2023-01-13T06:23:29.106Z,1.10
2023-01-13T06:24:29.086Z,0.90
2023-01-13T06:25:29.072Z,1.40
2023-01-13T06:26:29.056Z,1.10
2023-01-13T06:27:29.039Z,1.10
2023-01-13T06:28:29.052Z,1.20
2023-01-13T06:29:29.045Z,1.20
2023-01-13T06:30:29.024Z,1.10
2023-01-13T06:31:29.052Z,1.20
2023-01-13T06:32:29.006Z,1.30
2023-01-13T06:33:28.995Z,0.90
2023-01-13T06:34:28.970Z,1.10
2023-01-13T06:35:28.954Z,1.10
2023-01-13T06:36:28.953Z,0.90
2023-01-13T06:37:28.938Z,1.10
2023-01-13T06:38:28.953Z,1.10
2023-01-13T06:39:28.925Z,0.90
2023-01-13T06:40:28.920Z,1.10
2023-01-13T06:41:28.899Z,1.10
2023-01-13T06:42:28.915Z,1.10
2023-01-13T06:43:28.892Z,1.20
2023-01-13T06:44:28.870Z,1.10
2023-01-13T06:45:28.801Z,1.10
2023-01-13T06:46:28.866Z,1.20
2023-01-13T06:47:28.783Z,10.60
2023-01-13T06:48:28.795Z,11.90
2023-01-13T06:49:28.765Z,14.70
2023-01-13T06:50:28.763Z,16.80
2023-01-13T06:51:28.751Z,17.00
2023-01-13T06:52:28.737Z,24.20
2023-01-13T06:53:28.750Z,14.20
2023-01-13T06:54:28.717Z,16.60
2023-01-13T06:55:28.714Z,18.30
2023-01-13T06:56:28.707Z,18.30
2023-01-13T06:57:28.684Z,18.60
2023-01-13T06:58:28.682Z,16.10
2023-01-13T06:59:28.698Z,15.70
2023-01-13T07:00:28.663Z,16.70
2023-01-13T07:01:28.778Z,17.20
2023-01-13T07:02:28.760Z,19.10
2023-01-13T07:03:28.655Z,23.60
2023-01-13T07:04:28.624Z,15.00
2023-01-13T07:05:28.595Z,12.90
2023-01-13T07:06:28.594Z,21.70
2023-01-13T07:07:28.601Z,20.00
2023-01-13T07:08:28.565Z,11.30
2023-01-13T07:09:28.568Z,15.50
2023-01-13T07:10:28.560Z,14.40
2023-01-13T07:11:28.534Z,16.90
2023-01-13T07:12:28.529Z,19.50
2023-01-13T07:13:28.528Z,15.10
2023-01-13T07:14:28.536Z,15.00
2023-01-13T07:15:28.486Z,14.30
2023-01-13T07:16:28.555Z,16.60
2023-01-13T07:17:28.467Z,15.40
2023-01-13T07:18:28.538Z,16.90
2023-01-13T07:19:28.461Z,15.60
2023-01-13T07:20:28.464Z,18.40
2023-01-13T07:21:28.427Z,12.80
2023-01-13T07:22:28.433Z,16.10
2023-01-13T07:23:28.417Z,16.30
2023-01-13T07:24:28.461Z,16.60
2023-01-13T07:25:28.390Z,17.10
2023-01-13T07:26:28.394Z,19.30
2023-01-13T07:27:28.366Z,16.70
2023-01-13T07:28:28.373Z,16.00
2023-01-13T07:29:28.357Z,14.10
2023-01-13T07:30:28.448Z,14.20
2023-01-13T07:31:28.360Z,17.40
2023-01-13T07:32:28.323Z,14.00
2023-01-13T07:33:28.310Z,15.60
2023-01-13T07:34:28.308Z,13.50
2023-01-13T07:35:28.278Z,15.90
2023-01-13T07:36:28.277Z,17.20
2023-01-13T07:37:28.260Z,16.80
2023-01-13T07:38:28.273Z,17.00
2023-01-13T07:39:28.267Z,15.70
2023-01-13T07:40:28.296Z,15.90
2023-01-13T07:41:28.233Z,19.60
2023-01-13T07:42:28.243Z,15.90
2023-01-13T07:43:28.206Z,16.00
2023-01-13T07:44:28.219Z,15.20
2023-01-13T07:45:28.229Z,14.80
2023-01-13T07:46:28.190Z,17.40
2023-01-13T07:47:28.159Z,15.70
2023-01-13T07:48:28.162Z,16.40
2023-01-13T07:49:28.153Z,16.60
2023-01-13T07:50:28.132Z,15.00
2023-01-13T07:51:28.113Z,21.00
2023-01-13T07:52:28.111Z,12.90
2023-01-13T07:53:28.094Z,13.70
2023-01-13T07:54:39.654Z,16.10
2023-01-13T07:55:28.091Z,16.30
2023-01-13T07:56:28.083Z,14.50
2023-01-13T07:57:28.060Z,15.40
2023-01-13T07:58:28.073Z,12.70
2023-01-13T07:59:28.053Z,16.40
2023-01-13T08:00:28.042Z,14.00
2023-01-13T08:01:28.234Z,16.60
2023-01-13T08:02:28.251Z,13.50
2023-01-13T08:03:28.005Z,15.30
2023-01-13T08:04:28.019Z,19.60
2023-01-13T08:05:27.975Z,18.50
2023-01-13T08:06:27.994Z,15.80
2023-01-13T08:07:27.947Z,15.20
2023-01-13T08:08:27.951Z,13.50
2023-01-13T08:09:27.947Z,14.40
2023-01-13T08:10:27.926Z,16.60
2023-01-13T08:11:27.920Z,19.40
2023-01-13T08:12:27.930Z,17.30
2023-01-13T08:13:27.910Z,19.40
2023-01-13T08:14:27.918Z,17.60
2023-01-13T08:15:27.875Z,14.50
2023-01-13T08:16:27.943Z,15.20
2023-01-13T08:17:27.846Z,16.80
2023-01-13T08:18:27.852Z,15.60
2023-01-13T08:19:27.847Z,17.40
2023-01-13T08:20:27.825Z,17.30
2023-01-13T08:21:27.810Z,11.20
2023-01-13T08:22:27.799Z,20.10
2023-01-13T08:23:27.783Z,14.30
2023-01-13T08:24:27.794Z,13.70
2023-01-13T08:25:27.760Z,18.40
2023-01-13T08:26:27.760Z,16.10
2023-01-13T08:27:27.747Z,16.30
2023-01-13T08:28:27.744Z,16.90
2023-01-13T08:29:27.742Z,16.00
2023-01-13T08:30:27.825Z,16.40
2023-01-13T08:31:27.704Z,13.20
2023-01-13T08:32:27.697Z,17.40
2023-01-13T08:33:27.689Z,15.80
2023-01-13T08:34:27.689Z,20.70
2023-01-13T08:35:27.677Z,15.80
2023-01-13T08:36:27.662Z,17.90
2023-01-13T08:37:27.640Z,13.70
2023-01-13T08:38:27.648Z,17.20
2023-01-13T08:39:27.647Z,16.60
2023-01-13T08:40:27.618Z,15.10
2023-01-13T08:41:27.598Z,16.80
2023-01-13T08:42:27.614Z,14.60
2023-01-13T08:43:27.582Z,15.80
2023-01-13T08:44:27.610Z,15.20
2023-01-13T08:45:27.557Z,13.20
2023-01-13T08:46:27.601Z,16.60
2023-01-13T08:47:27.543Z,17.80
2023-01-13T08:48:29.682Z,13.70
2023-01-13T08:49:27.547Z,14.60
2023-01-13T08:50:27.521Z,17.20
2023-01-13T08:51:27.504Z,14.10
2023-01-13T08:52:27.503Z,15.30
2023-01-13T08:53:27.498Z,17.20
2023-01-13T08:54:27.501Z,13.70
2023-01-13T08:55:27.480Z,19.50
2023-01-13T08:56:27.487Z,18.20
2023-01-13T08:57:27.544Z,16.00
2023-01-13T08:58:27.439Z,22.60
2023-01-13T08:59:27.446Z,15.50
2023-01-13T09:00:27.416Z,19.20
2023-01-13T09:01:27.507Z,18.50
2023-01-13T09:02:27.456Z,17.60
2023-01-13T09:03:27.385Z,16.30
2023-01-13T09:04:27.444Z,19.80
2023-01-13T09:05:27.357Z,16.30
2023-01-13T09:06:27.372Z,17.80
2023-01-13T09:07:27.337Z,17.80
2023-01-13T09:08:27.335Z,17.20
2023-01-13T09:09:27.340Z,17.10
2023-01-13T09:10:27.344Z,21.30
2023-01-13T09:11:27.306Z,18.60
2023-01-13T09:12:27.290Z,20.20
2023-01-13T09:13:27.292Z,20.10
2023-01-13T09:14:27.303Z,15.10
2023-01-13T09:15:27.294Z,18.60
2023-01-13T09:16:27.310Z,17.60
2023-01-13T09:17:27.230Z,18.50
2023-01-13T09:18:27.228Z,16.90
2023-01-13T09:19:27.228Z,16.80
2023-01-13T09:20:27.214Z,19.30
2023-01-13T09:21:27.196Z,17.60
2023-01-13T09:22:27.192Z,20.10
2023-01-13T09:23:27.183Z,20.10
2023-01-13T09:24:27.173Z,17.00
2023-01-13T09:25:27.171Z,17.40
2023-01-13T09:26:27.204Z,19.30
2023-01-13T09:27:27.179Z,18.70
2023-01-13T09:28:27.136Z,18.60
2023-01-13T09:29:27.116Z,19.70
2023-01-13T09:30:33.194Z,16.50
2023-01-13T09:31:27.121Z,17.80
2023-01-13T09:32:27.073Z,17.50
2023-01-13T09:33:27.063Z,16.50
2023-01-13T09:34:27.100Z,15.50
2023-01-13T09:35:27.034Z,15.00
2023-01-13T09:36:27.032Z,17.50
2023-01-13T09:37:27.020Z,16.10
2023-01-13T09:38:27.021Z,18.70
2023-01-13T09:39:27.005Z,15.60
2023-01-13T09:40:26.986Z,17.20
2023-01-13T09:41:26.977Z,18.00
2023-01-13T09:42:26.963Z,16.50
2023-01-13T09:43:26.963Z,16.10
2023-01-13T09:44:26.951Z,17.30
2023-01-13T09:45:26.947Z,18.30
2023-01-13T09:46:26.933Z,16.10
2023-01-13T09:47:26.908Z,17.90
2023-01-13T09:48:26.899Z,13.90
2023-01-13T09:49:26.886Z,15.30
2023-01-13T09:50:26.886Z,14.50
2023-01-13T09:51:27.101Z,15.30
2023-01-13T09:52:27.278Z,15.70
2023-01-13T09:53:26.856Z,16.80
2023-01-13T09:54:26.841Z,18.10
2023-01-13T09:55:26.847Z,15.60
2023-01-13T09:56:26.809Z,16.90
2023-01-13T09:57:26.855Z,16.50
2023-01-13T09:58:26.791Z,18.90
2023-01-13T09:59:26.948Z,14.20
2023-01-13T10:00:26.783Z,18.20
2023-01-13T10:01:26.849Z,15.60
2023-01-13T10:02:26.748Z,15.30
2023-01-13T10:03:26.806Z,18.10
2023-01-13T10:04:26.852Z,20.00
2023-01-13T10:05:26.735Z,15.30
2023-01-13T10:06:26.699Z,16.60
2023-01-13T10:07:26.703Z,16.40
2023-01-13T10:08:26.675Z,17.60
2023-01-13T10:09:26.669Z,19.60
2023-01-13T10:10:26.663Z,16.10
2023-01-13T10:11:26.655Z,18.60
2023-01-13T10:12:26.633Z,21.60
2023-01-13T10:13:26.633Z,16.50
2023-01-13T10:14:26.612Z,15.50
2023-01-13T10:15:26.626Z,15.40
2023-01-13T10:16:26.635Z,14.80
2023-01-13T10:17:26.594Z,14.50
2023-01-13T10:18:26.578Z,15.20
2023-01-13T10:19:26.580Z,15.90
2023-01-13T10:20:26.598Z,15.70
2023-01-13T10:21:26.549Z,21.10
2023-01-13T10:22:26.526Z,17.20
2023-01-13T10:23:26.533Z,19.00
2023-01-13T10:24:26.533Z,15.90
2023-01-13T10:25:26.525Z,14.40
2023-01-13T10:26:26.540Z,17.40
2023-01-13T10:27:26.485Z,16.90
2023-01-13T10:28:26.468Z,16.50
2023-01-13T10:29:26.472Z,16.10
2023-01-13T10:30:26.455Z,15.90
2023-01-13T10:31:26.517Z,15.60
2023-01-13T10:32:26.423Z,16.80
2023-01-13T10:33:27.958Z,19.40
2023-01-13T10:34:26.405Z,17.90
2023-01-13T10:35:26.410Z,17.80
2023-01-13T10:36:26.384Z,15.70
2023-01-13T10:37:26.375Z,17.60
2023-01-13T10:38:26.364Z,17.60
2023-01-13T10:39:26.364Z,17.40
2023-01-13T10:40:26.361Z,17.00
2023-01-13T10:41:26.338Z,18.40
2023-01-13T10:42:26.349Z,16.10
2023-01-13T10:43:26.320Z,16.50
2023-01-13T10:44:26.305Z,18.20
2023-01-13T10:45:26.316Z,17.90
2023-01-13T10:46:26.330Z,22.40
2023-01-13T10:47:26.309Z,21.10
2023-01-13T10:48:26.259Z,18.30
2023-01-13T10:49:26.262Z,17.00
2023-01-13T10:50:26.263Z,16.40
2023-01-13T10:51:26.230Z,15.80
2023-01-13T10:52:26.290Z,20.70
2023-01-13T10:53:26.224Z,17.70
2023-01-13T10:54:26.199Z,18.50
2023-01-13T10:55:26.203Z,18.90
2023-01-13T10:56:26.199Z,15.30
2023-01-13T10:57:26.177Z,18.80
2023-01-13T10:58:26.163Z,18.10
2023-01-13T10:59:26.150Z,18.00
2023-01-13T11:00:26.151Z,15.70
2023-01-13T11:01:26.406Z,15.60
2023-01-13T11:02:27.018Z,16.80
2023-01-13T11:03:26.110Z,20.40
2023-01-13T11:04:26.172Z,20.90
2023-01-13T11:05:26.122Z,17.80
2023-01-13T11:06:26.070Z,20.70
2023-01-13T11:07:28.304Z,14.30
2023-01-13T11:08:26.054Z,19.20
2023-01-13T11:09:26.061Z,16.90
2023-01-13T11:10:26.052Z,18.10
2023-01-13T11:11:26.056Z,17.50
2023-01-13T11:12:26.022Z,17.70
2023-01-13T11:13:26.006Z,16.80
2023-01-13T11:14:25.990Z,17.90
2023-01-13T11:15:26.008Z,16.20
2023-01-13T11:16:26.041Z,16.30
2023-01-13T11:17:25.966Z,19.00
2023-01-13T11:18:25.966Z,18.10
2023-01-13T11:19:25.945Z,19.60
2023-01-13T11:20:25.945Z,19.70
2023-01-13T11:21:25.922Z,20.10
2023-01-13T11:22:25.908Z,22.00
2023-01-13T11:23:25.902Z,19.40
2023-01-13T11:24:25.890Z,15.30
2023-01-13T11:25:25.916Z,16.60
2023-01-13T11:26:25.870Z,18.80
2023-01-13T11:27:25.859Z,18.20
2023-01-13T11:28:25.857Z,20.00
2023-01-13T11:29:25.837Z,19.90
2023-01-13T11:30:25.841Z,18.80
2023-01-13T11:31:25.888Z,21.60
2023-01-13T11:32:25.806Z,19.60
2023-01-13T11:33:25.795Z,16.30
2023-01-13T11:34:25.784Z,18.40
2023-01-13T11:35:25.799Z,17.30
2023-01-13T11:36:25.823Z,18.80
2023-01-13T11:37:25.755Z,19.20
2023-01-13T11:38:25.736Z,19.20
2023-01-13T11:39:25.736Z,17.80
2023-01-13T11:40:25.731Z,20.60
2023-01-13T11:41:25.708Z,18.50
2023-01-13T11:42:25.706Z,21.80
2023-01-13T11:43:25.688Z,20.50
2023-01-13T11:44:25.689Z,17.20
2023-01-13T11:45:25.684Z,22.50
2023-01-13T11:46:25.701Z,19.00
2023-01-13T11:47:25.669Z,21.40
2023-01-13T11:48:25.636Z,20.10
2023-01-13T11:49:25.627Z,18.60
2023-01-13T11:50:25.626Z,20.60
2023-01-13T11:51:25.607Z,18.10
2023-01-13T11:52:25.591Z,19.50
2023-01-13T11:53:25.589Z,20.30
2023-01-13T11:54:25.578Z,20.50
2023-01-13T11:55:25.599Z,17.40
2023-01-13T11:56:25.548Z,18.30
2023-01-13T11:57:25.544Z,19.60
2023-01-13T11:58:25.539Z,17.00
2023-01-13T11:59:25.536Z,19.90
2023-01-13T12:00:25.521Z,19.50
2023-01-13T12:01:25.568Z,18.90
2023-01-13T12:02:25.532Z,19.40
2023-01-13T12:03:25.540Z,19.90
2023-01-13T12:04:25.470Z,23.00
2023-01-13T12:05:25.484Z,21.40
2023-01-13T12:06:25.466Z,24.00
2023-01-13T12:07:25.432Z,18.90
2023-01-13T12:08:25.428Z,18.80
2023-01-13T12:09:25.424Z,17.60
2023-01-13T12:10:25.419Z,19.60
2023-01-13T12:11:25.412Z,21.00
2023-01-13T12:12:25.409Z,19.20
2023-01-13T12:13:25.380Z,18.30
2023-01-13T12:14:25.382Z,20.20
2023-01-13T12:15:25.379Z,20.90
2023-01-13T12:16:25.357Z,24.20
2023-01-13T12:17:25.333Z,22.20
2023-01-13T12:18:25.325Z,21.00
2023-01-13T12:19:25.307Z,21.10
2023-01-13T12:20:25.314Z,22.70
2023-01-13T12:21:25.293Z,20.30
2023-01-13T12:22:25.291Z,19.90
2023-01-13T12:23:25.271Z,23.30
2023-01-13T12:24:25.268Z,20.20
2023-01-13T12:25:25.278Z,22.60
2023-01-13T12:26:25.255Z,20.80
2023-01-13T12:27:25.232Z,22.20
2023-01-13T12:28:25.258Z,21.60
2023-01-13T12:29:25.207Z,19.40
2023-01-13T12:30:25.232Z,21.50
2023-01-13T12:31:25.235Z,20.80
2023-01-13T12:32:25.178Z,21.10
2023-01-13T12:33:25.177Z,24.50
2023-01-13T12:34:25.162Z,21.30
2023-01-13T12:35:25.161Z,21.80
2023-01-13T12:36:25.141Z,17.80
2023-01-13T12:37:25.128Z,21.40
2023-01-13T12:38:25.112Z,20.90
2023-01-13T12:39:25.112Z,23.90
2023-01-13T12:40:25.104Z,19.50
2023-01-13T12:41:25.093Z,17.80
2023-01-13T12:42:25.090Z,24.40
2023-01-13T12:43:25.067Z,21.30
2023-01-13T12:44:25.058Z,22.90
2023-01-13T12:45:25.090Z,23.40
2023-01-13T12:46:25.027Z,23.80
2023-01-13T12:47:25.022Z,20.70
2023-01-13T12:48:25.007Z,18.20
2023-01-13T12:49:25.022Z,24.00
2023-01-13T12:50:25.000Z,23.10
2023-01-13T12:51:24.982Z,21.20
2023-01-13T12:52:24.968Z,27.00
2023-01-13T12:53:24.968Z,26.40
2023-01-13T12:54:24.945Z,28.30
2023-01-13T12:55:24.954Z,20.90
2023-01-13T12:56:24.931Z,19.50
2023-01-13T12:57:24.913Z,22.40
2023-01-13T12:58:24.911Z,21.70
2023-01-13T12:59:24.908Z,25.70
2023-01-13T13:00:24.900Z,26.80
2023-01-13T13:01:24.985Z,22.40
2023-01-13T13:02:24.897Z,23.20
2023-01-13T13:03:24.858Z,22.90
2023-01-13T13:04:24.848Z,22.30
2023-01-13T13:05:24.850Z,21.30